createdAt,value
2023-05-19T00:00:51.113Z,1017.26
2023-05-19T00:01:50.666Z,1017.28
2023-05-19T00:02:50.708Z,1017.29
2023-05-19T00:03:50.642Z,1017.26
2023-05-19T00:04:50.648Z,1017.28
2023-05-19T00:05:50.708Z,1017.26
2023-05-19T00:06:50.623Z,1017.24
2023-05-19T00:07:50.617Z,1017.26
2023-05-19T00:08:50.613Z,1017.25
2023-05-19T00:09:50.617Z,1017.27
2023-05-19T00:10:50.680Z,1017.26
2023-05-19T00:11:50.590Z,1017.24
2023-05-19T00:12:51.850Z,1017.28
2023-05-19T00:13:50.579Z,1017.27
2023-05-19T00:14:50.573Z,1017.28
2023-05-19T00:15:50.587Z,1017.30
2023-05-19T00:16:50.568Z,1017.27
2023-05-19T00:17:50.617Z,1017.26
2023-05-19T00:18:50.586Z,1017.26
2023-05-19T00:19:50.542Z,1017.26
2023-05-19T00:20:50.533Z,1017.25
2023-05-19T00:21:50.527Z,1017.28
2023-05-19T00:22:50.512Z,1017.27
2023-05-19T00:23:50.513Z,1017.26
2023-05-19T00:24:50.503Z,1017.26
2023-05-19T00:25:50.497Z,1017.24
2023-05-19T00:26:50.491Z,1017.23
2023-05-19T00:27:50.479Z,1017.21
2023-05-19T00:28:50.497Z,1017.23
2023-05-19T00:29:50.480Z,1017.23
2023-05-19T00:30:50.463Z,1017.21
2023-05-19T00:31:50.498Z,1017.17
2023-05-19T00:32:50.494Z,1017.21
2023-05-19T00:33:50.449Z,1017.22
2023-05-19T00:34:50.439Z,1017.22
2023-05-19T00:35:50.428Z,1017.24
2023-05-19T00:36:50.421Z,1017.22
2023-05-19T00:37:50.418Z,1017.29
2023-05-19T00:38:50.413Z,1017.28
2023-05-19T00:39:50.403Z,1017.27
2023-05-19T00:40:50.394Z,1017.29
2023-05-19T00:41:50.391Z,1017.29
2023-05-19T00:42:50.387Z,1017.32
2023-05-19T00:43:50.376Z,1017.36
2023-05-19T00:44:50.402Z,1017.35
2023-05-19T00:45:50.371Z,1017.36
2023-05-19T00:46:50.417Z,1017.29
2023-05-19T00:47:50.381Z,1017.34
2023-05-19T00:48:50.354Z,1017.32
2023-05-19T00:49:50.374Z,1017.33
2023-05-19T00:50:50.333Z,1017.32
2023-05-19T00:51:50.325Z,1017.35
2023-05-19T00:52:50.320Z,1017.38
2023-05-19T00:53:50.322Z,1017.37
2023-05-19T00:54:50.298Z,1017.36
2023-05-19T00:55:50.296Z,1017.34
2023-05-19T00:56:50.294Z,1017.34
2023-05-19T00:57:50.285Z,1017.33
2023-05-19T00:58:50.280Z,1017.30
2023-05-19T00:59:50.270Z,1017.36
2023-05-19T01:00:50.314Z,1017.30
2023-05-19T01:01:50.260Z,1017.28
2023-05-19T01:02:50.341Z,1017.30
2023-05-19T01:03:50.416Z,1017.29
2023-05-19T01:04:50.240Z,1017.30
2023-05-19T01:05:50.241Z,1017.30
2023-05-19T01:06:50.228Z,1017.31
2023-05-19T01:07:50.219Z,1017.30
2023-05-19T01:08:50.211Z,1017.27
2023-05-19T01:09:50.209Z,1017.27
2023-05-19T01:10:50.198Z,1017.30
2023-05-19T01:11:50.195Z,1017.32
2023-05-19T01:12:50.189Z,1017.30
2023-05-19T01:13:50.182Z,1017.30
2023-05-19T01:14:50.182Z,1017.31
2023-05-19T01:15:50.172Z,1017.32
2023-05-19T01:16:50.285Z,1017.25
2023-05-19T01:17:50.190Z,1017.30
2023-05-19T01:18:50.198Z,1017.28
2023-05-19T01:19:50.141Z,1017.30
2023-05-19T01:20:50.139Z,1017.27
2023-05-19T01:21:50.142Z,1017.28
2023-05-19T01:22:50.119Z,1017.23
2023-05-19T01:23:50.112Z,1017.27
2023-05-19T01:24:50.104Z,1017.23
2023-05-19T01:25:50.099Z,1017.19
2023-05-19T01:26:50.093Z,1017.20
2023-05-19T01:27:50.095Z,1017.23
2023-05-19T01:28:50.075Z,1017.22
2023-05-19T01:29:50.068Z,1017.21
2023-05-19T01:30:50.109Z,1017.22
2023-05-19T01:31:50.076Z,1017.24
2023-05-19T01:32:50.120Z,1017.21
2023-05-19T01:33:50.050Z,1017.23
2023-05-19T01:34:50.035Z,1017.23
2023-05-19T01:35:50.019Z,1017.20
2023-05-19T01:36:50.020Z,1017.24
2023-05-19T01:37:50.016Z,1017.23
2023-05-19T01:38:50.000Z,1017.24
2023-05-19T01:39:50.010Z,1017.26
2023-05-19T01:40:50.004Z,1017.26
2023-05-19T01:41:49.994Z,1017.29
2023-05-19T01:42:49.981Z,1017.25
2023-05-19T01:43:49.977Z,1017.28
2023-05-19T01:44:49.967Z,1017.26
2023-05-19T01:45:49.997Z,1017.21
2023-05-19T01:46:49.969Z,1017.22
2023-05-19T01:47:49.996Z,1017.20
2023-05-19T01:48:49.938Z,1017.24
2023-05-19T01:49:49.931Z,1017.19
2023-05-19T01:50:49.930Z,1017.19
2023-05-19T01:51:49.920Z,1017.21
2023-05-19T01:52:49.922Z,1017.16
2023-05-19T01:53:49.902Z,1017.17
2023-05-19T01:54:49.898Z,1017.20
2023-05-19T01:55:49.908Z,1017.18
2023-05-19T01:56:49.885Z,1017.22
2023-05-19T01:57:49.880Z,1017.23
2023-05-19T01:58:49.859Z,1017.23
2023-05-19T01:59:49.859Z,1017.24
2023-05-19T02:00:49.852Z,1017.23
2023-05-19T02:01:49.840Z,1017.20
2023-05-19T02:02:49.843Z,1017.20
2023-05-19T02:03:49.850Z,1017.22
2023-05-19T02:04:49.892Z,1017.20
2023-05-19T02:05:49.809Z,1017.26
2023-05-19T02:06:49.805Z,1017.25
2023-05-19T02:07:49.805Z,1017.28
2023-05-19T02:08:49.802Z,1017.30
2023-05-19T02:09:49.797Z,1017.29
2023-05-19T02:11:10.785Z,1017.30
2023-05-19T02:11:49.781Z,1017.32
2023-05-19T02:12:49.768Z,1017.30
2023-05-19T02:13:49.756Z,1017.30
2023-05-19T02:14:49.771Z,1017.31
2023-05-19T02:15:49.766Z,1017.28
2023-05-19T02:16:49.735Z,1017.30
2023-05-19T02:17:49.755Z,1017.32
2023-05-19T02:18:49.717Z,1017.31
2023-05-19T02:19:49.701Z,1017.33
2023-05-19T02:20:49.693Z,1017.34
2023-05-19T02:21:49.693Z,1017.35
2023-05-19T02:22:49.678Z,1017.33
2023-05-19T02:23:49.672Z,1017.35
2023-05-19T02:24:49.673Z,1017.32
2023-05-19T02:25:49.657Z,1017.30
2023-05-19T02:26:49.641Z,1017.31
2023-05-19T02:27:49.642Z,1017.33
2023-05-19T02:28:49.660Z,1017.35
2023-05-19T02:29:49.623Z,1017.34
2023-05-19T02:30:49.624Z,1017.36
2023-05-19T02:31:49.655Z,1017.37
2023-05-19T02:32:49.635Z,1017.37
2023-05-19T02:33:49.594Z,1017.39
2023-05-19T02:34:49.597Z,1017.38
2023-05-19T02:35:49.584Z,1017.37
2023-05-19T02:36:49.579Z,1017.32
2023-05-19T02:37:49.558Z,1017.37
2023-05-19T02:38:49.571Z,1017.35
2023-05-19T02:39:49.546Z,1017.33
2023-05-19T02:40:49.552Z,1017.32
2023-05-19T02:41:49.542Z,1017.30
2023-05-19T02:42:49.527Z,1017.28
2023-05-19T02:43:49.521Z,1017.29
2023-05-19T02:44:49.512Z,1017.27
2023-05-19T02:45:49.511Z,1017.30
2023-05-19T02:46:49.583Z,1017.27
2023-05-19T02:47:49.510Z,1017.25
2023-05-19T02:48:49.500Z,1017.26
2023-05-19T02:49:49.500Z,1017.27
2023-05-19T02:50:49.459Z,1017.27
2023-05-19T02:51:49.453Z,1017.24
2023-05-19T02:52:49.445Z,1017.22
2023-05-19T02:53:49.436Z,1017.19
2023-05-19T02:54:49.434Z,1017.17
2023-05-19T02:55:49.420Z,1017.15
2023-05-19T02:56:49.413Z,1017.18
2023-05-19T02:57:49.421Z,1017.18
2023-05-19T02:58:49.404Z,1017.22
2023-05-19T02:59:49.392Z,1017.23
2023-05-19T03:00:49.401Z,1017.20
2023-05-19T03:01:49.430Z,1017.22
2023-05-19T03:02:49.458Z,1017.23
2023-05-19T03:03:49.438Z,1017.22
2023-05-19T03:04:49.357Z,1017.26
2023-05-19T03:05:49.340Z,1017.22
2023-05-19T03:06:49.334Z,1017.23
2023-05-19T03:07:49.326Z,1017.20
2023-05-19T03:08:49.318Z,1017.19
2023-05-19T03:09:49.310Z,1017.18
2023-05-19T03:10:49.300Z,1017.19
2023-05-19T03:11:49.297Z,1017.15
2023-05-19T03:12:49.297Z,1017.10
2023-05-19T03:13:49.281Z,1017.11
2023-05-19T03:14:49.293Z,1017.12
2023-05-19T03:15:49.288Z,1017.14
2023-05-19T03:16:49.330Z,1017.11
2023-05-19T03:17:49.401Z,1017.09
2023-05-19T03:18:49.284Z,1017.10
2023-05-19T03:19:49.229Z,1017.07
2023-05-19T03:20:49.222Z,1017.08
2023-05-19T03:21:49.215Z,1017.06
2023-05-19T03:22:49.221Z,1017.06
2023-05-19T03:23:49.195Z,1017.08
2023-05-19T03:24:49.195Z,1017.03
2023-05-19T03:25:49.183Z,1017.01
2023-05-19T03:26:49.182Z,1017.04
2023-05-19T03:27:49.177Z,1017.05
2023-05-19T03:28:49.168Z,1017.01
2023-05-19T03:29:49.162Z,1017.02
2023-05-19T03:30:49.141Z,1017.04
2023-05-19T03:31:49.142Z,1017.04
2023-05-19T03:32:49.196Z,1017.03
2023-05-19T03:33:49.137Z,1017.03
2023-05-19T03:34:49.117Z,1017.04
2023-05-19T03:35:49.105Z,1017.09
2023-05-19T03:36:49.102Z,1017.09
2023-05-19T03:37:49.094Z,1017.05
2023-05-19T03:38:49.092Z,1017.11
2023-05-19T03:39:49.076Z,1017.11
2023-05-19T03:40:49.064Z,1017.11
2023-05-19T03:41:49.072Z,1017.12
2023-05-19T03:42:49.058Z,1017.15
2023-05-19T03:43:49.040Z,1017.16
2023-05-19T03:44:49.034Z,1017.15
2023-05-19T03:45:49.046Z,1017.18
2023-05-19T03:46:49.031Z,1017.18
2023-05-19T03:47:49.044Z,1017.22
2023-05-19T03:48:49.004Z,1017.21
2023-05-19T03:49:48.989Z,1017.20
2023-05-19T03:50:48.978Z,1017.18
2023-05-19T03:51:48.980Z,1017.15
2023-05-19T03:52:48.974Z,1017.19
2023-05-19T03:53:48.958Z,1017.20
2023-05-19T03:54:48.955Z,1017.21
2023-05-19T03:55:49.034Z,1017.18
2023-05-19T03:56:48.928Z,1017.21
2023-05-19T03:57:48.920Z,1017.15
2023-05-19T03:58:48.909Z,1017.17
2023-05-19T03:59:48.908Z,1017.16
2023-05-19T04:00:48.899Z,1017.19
2023-05-19T04:01:48.899Z,1017.16
2023-05-19T04:02:48.974Z,1017.17
2023-05-19T04:03:48.868Z,1017.17
2023-05-19T04:04:48.925Z,1017.14
2023-05-19T04:05:48.845Z,1017.19
2023-05-19T04:06:48.852Z,1017.18
2023-05-19T04:07:48.847Z,1017.17
2023-05-19T04:08:48.835Z,1017.11
2023-05-19T04:09:48.824Z,1017.12
2023-05-19T04:10:48.815Z,1017.15
2023-05-19T04:11:48.806Z,1017.10
2023-05-19T04:12:48.803Z,1017.19
2023-05-19T04:13:48.801Z,1017.10
2023-05-19T04:14:48.769Z,1017.17
2023-05-19T04:15:48.804Z,1017.16
2023-05-19T04:16:48.769Z,1017.19
2023-05-19T04:17:48.825Z,1017.20
2023-05-19T04:18:48.781Z,1017.24
2023-05-19T04:19:48.738Z,1017.21
2023-05-19T04:20:48.720Z,1017.22
2023-05-19T04:21:48.722Z,1017.19
2023-05-19T04:22:48.714Z,1017.21
2023-05-19T04:23:48.720Z,1017.18
2023-05-19T04:24:48.694Z,1017.17
2023-05-19T04:25:48.717Z,1017.17
2023-05-19T04:26:48.677Z,1017.17
2023-05-19T04:27:48.673Z,1017.16
2023-05-19T04:28:48.660Z,1017.12
2023-05-19T04:29:48.660Z,1017.09
2023-05-19T04:30:48.736Z,1017.13
2023-05-19T04:31:48.633Z,1017.09
2023-05-19T04:32:48.652Z,1017.14
2023-05-19T04:33:48.624Z,1017.13
2023-05-19T04:34:48.611Z,1017.12
2023-05-19T04:35:48.630Z,1017.13
2023-05-19T04:36:49.804Z,1017.13
2023-05-19T04:37:48.597Z,1017.15
2023-05-19T04:38:48.581Z,1017.16
2023-05-19T04:39:48.568Z,1017.16
2023-05-19T04:40:48.564Z,1017.14
2023-05-19T04:41:48.551Z,1017.15
2023-05-19T04:42:48.542Z,1017.18
2023-05-19T04:43:48.536Z,1017.16
2023-05-19T04:44:48.530Z,1017.17
2023-05-19T04:45:48.513Z,1017.19
2023-05-19T04:46:48.520Z,1017.21
2023-05-19T04:47:48.586Z,1017.19
2023-05-19T04:48:48.496Z,1017.24
2023-05-19T04:49:48.516Z,1017.24
2023-05-19T04:50:48.473Z,1017.24
2023-05-19T04:51:48.478Z,1017.22
2023-05-19T04:52:48.467Z,1017.25
2023-05-19T04:53:48.453Z,1017.28
2023-05-19T04:54:48.459Z,1017.25
2023-05-19T04:55:48.433Z,1017.25
2023-05-19T04:56:48.442Z,1017.22
2023-05-19T04:57:48.415Z,1017.24
2023-05-19T04:58:48.402Z,1017.24
2023-05-19T04:59:48.402Z,1017.26
2023-05-19T05:00:48.400Z,1017.26
2023-05-19T05:01:48.432Z,1017.26
2023-05-19T05:02:48.516Z,1017.23
2023-05-19T05:03:48.415Z,1017.28
2023-05-19T05:04:48.373Z,1017.29
2023-05-19T05:05:48.350Z,1017.28
2023-05-19T05:06:48.341Z,1017.30
2023-05-19T05:07:48.330Z,1017.31
2023-05-19T05:08:48.326Z,1017.27
2023-05-19T05:09:48.325Z,1017.31
2023-05-19T05:10:48.306Z,1017.27
2023-05-19T05:11:48.304Z,1017.35
2023-05-19T05:12:48.292Z,1017.31
2023-05-19T05:13:48.284Z,1017.26
2023-05-19T05:14:48.265Z,1017.25
2023-05-19T05:15:48.272Z,1017.26
2023-05-19T05:16:48.269Z,1017.28
2023-05-19T05:17:48.298Z,1017.27
2023-05-19T05:18:48.285Z,1017.26
2023-05-19T05:19:48.245Z,1017.26
2023-05-19T05:20:48.223Z,1017.31
2023-05-19T05:21:48.218Z,1017.30
2023-05-19T05:22:48.213Z,1017.35
2023-05-19T05:23:48.205Z,1017.35
2023-05-19T05:24:48.195Z,1017.38
2023-05-19T05:25:48.187Z,1017.41
2023-05-19T05:26:48.189Z,1017.40
2023-05-19T05:27:48.180Z,1017.41
2023-05-19T05:28:48.165Z,1017.38
2023-05-19T05:29:48.173Z,1017.40
2023-05-19T05:30:48.149Z,1017.36
2023-05-19T05:31:48.147Z,1017.36
2023-05-19T05:32:48.216Z,1017.37
2023-05-19T05:33:48.173Z,1017.31
2023-05-19T05:34:48.119Z,1017.34
2023-05-19T05:35:48.114Z,1017.32
2023-05-19T05:36:48.098Z,1017.34
2023-05-19T05:37:48.092Z,1017.31
2023-05-19T05:38:48.079Z,1017.31
2023-05-19T05:39:48.081Z,1017.30
2023-05-19T05:40:48.070Z,1017.25
2023-05-19T05:41:48.058Z,1017.30
2023-05-19T05:42:48.057Z,1017.26
2023-05-19T05:43:48.050Z,1017.24
2023-05-19T05:44:48.039Z,1017.23
2023-05-19T05:45:48.060Z,1017.20
2023-05-19T05:46:48.025Z,1017.22
2023-05-19T05:47:48.038Z,1017.18
2023-05-19T05:48:48.004Z,1017.19
2023-05-19T05:49:48.002Z,1017.15
2023-05-19T05:50:48.002Z,1017.17
2023-05-19T05:52:01.535Z,1017.15
2023-05-19T05:52:47.977Z,1017.19
2023-05-19T05:53:47.979Z,1017.19
2023-05-19T05:54:47.971Z,1017.17
2023-05-19T05:55:47.951Z,1017.15
2023-05-19T05:56:47.946Z,1017.18
2023-05-19T05:57:47.939Z,1017.19
2023-05-19T05:58:47.939Z,1017.19
2023-05-19T05:59:47.926Z,1017.20
2023-05-19T06:00:47.922Z,1017.21
2023-05-19T06:01:47.920Z,1017.19
2023-05-19T06:02:47.937Z,1017.22
2023-05-19T06:03:48.018Z,1017.28
2023-05-19T06:04:47.882Z,1017.22
2023-05-19T06:05:47.925Z,1017.28
2023-05-19T06:06:47.901Z,1017.30
2023-05-19T06:07:47.915Z,1017.25
2023-05-19T06:08:47.858Z,1017.32
2023-05-19T06:09:47.853Z,1017.28
2023-05-19T06:10:47.862Z,1017.27
2023-05-19T06:11:47.863Z,1017.27
2023-05-19T06:12:47.875Z,1017.19
2023-05-19T06:13:47.822Z,1017.22
2023-05-19T06:14:47.837Z,1017.24
2023-05-19T06:15:47.818Z,1017.22
2023-05-19T06:16:47.799Z,1017.16
2023-05-19T06:17:47.834Z,1017.18
2023-05-19T06:18:47.824Z,1017.16
2023-05-19T06:19:47.787Z,1017.17
2023-05-19T06:20:47.770Z,1017.16
2023-05-19T06:21:47.767Z,1017.12
2023-05-19T06:22:47.760Z,1017.10
2023-05-19T06:23:47.750Z,1017.11
2023-05-19T06:24:47.751Z,1017.13
2023-05-19T06:25:47.735Z,1017.15
2023-05-19T06:26:47.723Z,1017.14
2023-05-19T06:27:47.730Z,1017.11
2023-05-19T06:28:47.713Z,1017.13
2023-05-19T06:29:47.703Z,1017.13
2023-05-19T06:30:47.696Z,1017.16
2023-05-19T06:31:48.329Z,1017.14
2023-05-19T06:32:47.705Z,1017.14
2023-05-19T06:33:47.695Z,1017.17
2023-05-19T06:34:47.671Z,1017.17
2023-05-19T06:35:47.681Z,1017.15
2023-05-19T06:36:47.653Z,1017.12
2023-05-19T06:37:47.644Z,1017.11
2023-05-19T06:38:47.637Z,1017.08
2023-05-19T06:39:47.630Z,1017.03
2023-05-19T06:40:47.650Z,1017.03
2023-05-19T06:41:47.622Z,1017.07
2023-05-19T06:42:47.608Z,1017.10
2023-05-19T06:43:47.603Z,1017.08
2023-05-19T06:44:47.590Z,1017.12
2023-05-19T06:45:47.599Z,1017.07
2023-05-19T06:46:47.613Z,1017.08
2023-05-19T06:47:47.619Z,1017.09
2023-05-19T06:48:47.561Z,1017.12
2023-05-19T06:49:47.560Z,1017.09
2023-05-19T06:50:47.555Z,1017.08
2023-05-19T06:51:47.546Z,1017.07
2023-05-19T06:52:47.563Z,1017.08
2023-05-19T06:53:47.534Z,1017.04
2023-05-19T06:54:47.535Z,1017.03
2023-05-19T06:55:58.576Z,1017.04
2023-05-19T06:56:47.515Z,1017.03
2023-05-19T06:57:47.515Z,1016.99
2023-05-19T06:58:47.496Z,1017.03
2023-05-19T06:59:47.488Z,1017.03
2023-05-19T07:00:47.471Z,1017.03
2023-05-19T07:01:47.487Z,1017.10
2023-05-19T07:02:47.593Z,1017.07
2023-05-19T07:03:47.534Z,1017.04
2023-05-19T07:04:47.451Z,1017.06
2023-05-19T07:05:47.450Z,1017.09
2023-05-19T07:06:47.444Z,1017.08
2023-05-19T07:07:47.440Z,1017.07
2023-05-19T07:08:47.426Z,1017.03
2023-05-19T07:09:47.427Z,1016.97
2023-05-19T07:10:47.435Z,1017.01
2023-05-19T07:11:47.466Z,1016.98
2023-05-19T07:12:48.270Z,1016.95
2023-05-19T07:13:47.397Z,1016.97
2023-05-19T07:14:47.380Z,1016.98
2023-05-19T07:15:47.391Z,1016.96
2023-05-19T07:16:47.476Z,1016.98
2023-05-19T07:17:47.394Z,1016.96
2023-05-19T07:18:47.376Z,1016.94
2023-05-19T07:19:47.350Z,1016.94
2023-05-19T07:20:47.346Z,1016.89
2023-05-19T07:21:47.342Z,1016.92
2023-05-19T07:22:47.327Z,1016.92
2023-05-19T07:23:47.364Z,1016.88
2023-05-19T07:24:47.329Z,1016.90
2023-05-19T07:25:47.316Z,1016.91
2023-05-19T07:26:47.304Z,1016.91
2023-05-19T07:27:47.304Z,1016.92
2023-05-19T07:28:47.304Z,1016.86
2023-05-19T07:29:47.297Z,1016.85
2023-05-19T07:30:47.286Z,1016.91
2023-05-19T07:31:47.303Z,1016.93
2023-05-19T07:32:47.371Z,1016.92
2023-05-19T07:33:47.262Z,1016.90
2023-05-19T07:34:47.267Z,1016.96
2023-05-19T07:35:47.262Z,1016.89
2023-05-19T07:36:47.250Z,1016.91
2023-05-19T07:37:47.246Z,1016.93
2023-05-19T07:38:47.294Z,1016.89
2023-05-19T07:39:47.224Z,1016.90
2023-05-19T07:40:47.216Z,1016.92
2023-05-19T07:41:47.212Z,1016.93
2023-05-19T07:42:47.209Z,1016.89
2023-05-19T07:43:47.193Z,1016.90
2023-05-19T07:44:47.195Z,1016.87
2023-05-19T07:45:47.238Z,1016.82
2023-05-19T07:46:47.202Z,1016.87
2023-05-19T07:47:47.204Z,1016.84
2023-05-19T07:48:47.176Z,1016.81
2023-05-19T07:49:47.786Z,1016.79
2023-05-19T07:50:47.156Z,1016.80
2023-05-19T07:51:47.157Z,1016.83
2023-05-19T07:52:47.146Z,1016.83
2023-05-19T07:53:47.154Z,1016.82
2023-05-19T07:54:47.136Z,1016.78
2023-05-19T07:55:47.126Z,1016.81
2023-05-19T07:56:47.152Z,1016.77
2023-05-19T07:57:47.111Z,1016.76
2023-05-19T07:58:47.114Z,1016.78
2023-05-19T07:59:47.109Z,1016.79
2023-05-19T08:00:47.099Z,1016.77
2023-05-19T08:01:47.104Z,1016.76
2023-05-19T08:02:47.193Z,1016.80
2023-05-19T08:03:47.206Z,1016.75
2023-05-19T08:04:47.148Z,1016.74
2023-05-19T08:05:47.077Z,1016.75
2023-05-19T08:06:47.062Z,1016.75
2023-05-19T08:07:47.067Z,1016.72
2023-05-19T08:08:47.055Z,1016.75
2023-05-19T08:09:47.050Z,1016.71
2023-05-19T08:10:47.034Z,1016.75
2023-05-19T08:11:47.280Z,1016.75
2023-05-19T08:12:47.028Z,1016.69
2023-05-19T08:13:47.039Z,1016.72
2023-05-19T08:14:47.011Z,1016.68
2023-05-19T08:15:47.110Z,1016.74
2023-05-19T08:16:47.005Z,1016.72
2023-05-19T08:17:47.017Z,1016.74
2023-05-19T08:18:47.059Z,1016.73
2023-05-19T08:19:46.986Z,1016.67
2023-05-19T08:20:47.002Z,1016.69
2023-05-19T08:21:46.975Z,1016.69
2023-05-19T08:22:46.985Z,1016.67
2023-05-19T08:23:46.963Z,1016.68
2023-05-19T08:24:46.967Z,1016.64
2023-05-19T08:25:46.967Z,1016.58
2023-05-19T08:26:46.964Z,1016.60
2023-05-19T08:27:46.960Z,1016.60
2023-05-19T08:28:46.952Z,1016.60
2023-05-19T08:29:46.937Z,1016.61
2023-05-19T08:30:46.929Z,1016.60
2023-05-19T08:31:46.987Z,1016.56
2023-05-19T08:32:46.961Z,1016.56
2023-05-19T08:33:46.925Z,1016.56
2023-05-19T08:34:46.914Z,1016.56
2023-05-19T08:35:46.906Z,1016.52
2023-05-19T08:36:46.902Z,1016.50
2023-05-19T08:37:46.909Z,1016.50
2023-05-19T08:38:46.896Z,1016.53
2023-05-19T08:39:46.878Z,1016.52
2023-05-19T08:40:46.896Z,1016.52
2023-05-19T08:41:46.873Z,1016.53
2023-05-19T08:42:46.867Z,1016.56
2023-05-19T08:43:46.862Z,1016.56
2023-05-19T08:44:46.876Z,1016.52
2023-05-19T08:45:46.851Z,1016.53
2023-05-19T08:46:46.886Z,1016.53
2023-05-19T08:47:46.923Z,1016.50
2023-05-19T08:48:46.840Z,1016.48
2023-05-19T08:49:46.828Z,1016.49
2023-05-19T08:50:46.822Z,1016.46
2023-05-19T08:51:46.821Z,1016.47
2023-05-19T08:52:50.157Z,1016.46
2023-05-19T08:53:46.805Z,1016.43
2023-05-19T08:54:46.804Z,1016.45
2023-05-19T08:55:46.804Z,1016.46
2023-05-19T08:56:46.812Z,1016.48
2023-05-19T08:57:46.786Z,1016.46
2023-05-19T08:58:46.790Z,1016.46
2023-05-19T08:59:46.811Z,1016.48
2023-05-19T09:00:46.822Z,1016.45
2023-05-19T09:01:46.814Z,1016.44
2023-05-19T09:02:55.447Z,1016.41
2023-05-19T09:03:46.849Z,1016.37
2023-05-19T09:04:46.825Z,1016.35
2023-05-19T09:05:46.997Z,1016.35
2023-05-19T09:06:46.755Z,1016.35
2023-05-19T09:07:46.753Z,1016.32
2023-05-19T09:08:46.739Z,1016.32
2023-05-19T09:09:46.738Z,1016.32
2023-05-19T09:10:46.732Z,1016.26
2023-05-19T09:11:46.726Z,1016.27
2023-05-19T09:12:46.730Z,1016.22
2023-05-19T09:13:46.730Z,1016.24
2023-05-19T09:14:46.733Z,1016.24
2023-05-19T09:15:46.713Z,1016.21
2023-05-19T09:16:46.859Z,1016.31
2023-05-19T09:17:46.752Z,1016.32
2023-05-19T09:18:46.766Z,1016.25
2023-05-19T09:19:46.708Z,1016.29
2023-05-19T09:20:46.706Z,1016.26
2023-05-19T09:21:46.703Z,1016.28
2023-05-19T09:22:46.700Z,1016.30
2023-05-19T09:23:46.700Z,1016.29
2023-05-19T09:24:46.694Z,1016.21
2023-05-19T09:25:46.692Z,1016.24
2023-05-19T09:26:46.696Z,1016.22
2023-05-19T09:27:46.684Z,1016.26
2023-05-19T09:28:46.683Z,1016.23
2023-05-19T09:29:46.688Z,1016.22
2023-05-19T09:30:46.677Z,1016.15
2023-05-19T09:31:46.763Z,1016.15
2023-05-19T09:32:47.399Z,1016.12
2023-05-19T09:33:46.685Z,1016.09
2023-05-19T09:34:46.666Z,1016.12
2023-05-19T09:35:46.665Z,1016.13
2023-05-19T09:36:46.675Z,1016.05
2023-05-19T09:37:46.668Z,1016.07
2023-05-19T09:38:46.667Z,1016.02
2023-05-19T09:39:46.667Z,1016.01
2023-05-19T09:40:46.666Z,1016.04
2023-05-19T09:41:46.670Z,1016.12
2023-05-19T09:42:46.662Z,1016.13
2023-05-19T09:43:46.663Z,1016.08
2023-05-19T09:44:46.658Z,1016.08
2023-05-19T09:45:46.712Z,1016.00
2023-05-19T09:46:46.660Z,1016.05
2023-05-19T09:47:46.688Z,1016.06
2023-05-19T09:48:46.662Z,1016.06
2023-05-19T09:49:46.650Z,1016.02
2023-05-19T09:50:46.661Z,1016.00
2023-05-19T09:51:46.661Z,1015.94
2023-05-19T09:52:46.653Z,1015.99
2023-05-19T09:53:46.652Z,1015.93
2023-05-19T09:54:46.645Z,1015.93
2023-05-19T09:55:46.651Z,1015.95
2023-05-19T09:56:46.657Z,1015.89
2023-05-19T09:57:46.653Z,1015.97
2023-05-19T09:58:46.652Z,1015.95
2023-05-19T09:59:46.651Z,1015.92
2023-05-19T10:00:46.657Z,1015.87
2023-05-19T10:01:46.786Z,1015.91
2023-05-19T10:02:46.678Z,1015.89
2023-05-19T10:03:46.647Z,1015.95
2023-05-19T10:04:46.716Z,1015.97
2023-05-19T10:05:46.656Z,1015.94
2023-05-19T10:06:46.650Z,1015.92
2023-05-19T10:07:46.663Z,1015.91
2023-05-19T10:08:46.667Z,1015.86
2023-05-19T10:09:46.657Z,1015.96
2023-05-19T10:10:46.654Z,1015.93
2023-05-19T10:11:46.658Z,1015.84
2023-05-19T10:12:46.657Z,1015.84
2023-05-19T10:13:46.669Z,1015.81
2023-05-19T10:14:46.661Z,1015.89
2023-05-19T10:15:57.113Z,1015.84
2023-05-19T10:16:46.685Z,1015.75
2023-05-19T10:17:46.669Z,1015.79
2023-05-19T10:18:46.681Z,1015.85
2023-05-19T10:19:46.660Z,1015.86
2023-05-19T10:20:46.657Z,1015.77
2023-05-19T10:21:46.664Z,1015.79
2023-05-19T10:22:46.659Z,1015.78
2023-05-19T10:23:46.666Z,1015.81
2023-05-19T10:24:46.666Z,1015.76
2023-05-19T10:25:46.661Z,1015.77
2023-05-19T10:26:46.667Z,1015.76
2023-05-19T10:27:46.669Z,1015.73
2023-05-19T10:28:46.665Z,1015.74
2023-05-19T10:29:46.672Z,1015.72
2023-05-19T10:30:46.664Z,1015.75
2023-05-19T10:31:46.695Z,1015.72
2023-05-19T10:32:46.736Z,1015.63
2023-05-19T10:33:46.671Z,1015.74
2023-05-19T10:34:46.673Z,1015.69
2023-05-19T10:35:47.313Z,1015.65
2023-05-19T10:36:46.671Z,1015.75
2023-05-19T10:37:46.666Z,1015.76
2023-05-19T10:38:46.674Z,1015.76
2023-05-19T10:39:46.681Z,1015.67
2023-05-19T10:40:46.681Z,1015.75
2023-05-19T10:41:47.088Z,1015.68
2023-05-19T10:42:46.680Z,1015.61
2023-05-19T10:43:46.675Z,1015.67
2023-05-19T10:44:46.691Z,1015.65
2023-05-19T10:45:46.686Z,1015.59
2023-05-19T10:46:46.705Z,1015.61
2023-05-19T10:47:46.704Z,1015.68
2023-05-19T10:48:46.712Z,1015.72
2023-05-19T10:49:46.702Z,1015.62
2023-05-19T10:50:46.691Z,1015.72
2023-05-19T10:51:46.714Z,1015.71
2023-05-19T10:52:46.704Z,1015.70
2023-05-19T10:53:46.739Z,1015.65
2023-05-19T10:54:46.695Z,1015.67
2023-05-19T10:55:46.687Z,1015.64
2023-05-19T10:56:46.713Z,1015.64
2023-05-19T10:57:46.703Z,1015.65
2023-05-19T10:58:46.718Z,1015.56
2023-05-19T10:59:46.702Z,1015.65
2023-05-19T11:00:46.696Z,1015.60
2023-05-19T11:01:46.736Z,1015.54
2023-05-19T11:02:46.727Z,1015.58
2023-05-19T11:03:46.731Z,1015.57
2023-05-19T11:04:48.877Z,1015.61
2023-05-19T11:05:46.724Z,1015.58
2023-05-19T11:06:46.718Z,1015.53
2023-05-19T11:07:46.723Z,1015.56
2023-05-19T11:08:46.717Z,1015.55
2023-05-19T11:09:46.709Z,1015.50
2023-05-19T11:10:46.732Z,1015.48
2023-05-19T11:11:46.736Z,1015.51
2023-05-19T11:12:46.741Z,1015.49
2023-05-19T11:13:46.726Z,1015.45
2023-05-19T11:14:46.722Z,1015.43
2023-05-19T11:15:46.739Z,1015.43
2023-05-19T11:16:46.762Z,1015.39
2023-05-19T11:17:46.742Z,1015.35
2023-05-19T11:18:46.768Z,1015.37
2023-05-19T11:19:46.737Z,1015.41
2023-05-19T11:20:46.782Z,1015.42
2023-05-19T11:21:46.736Z,1015.36
2023-05-19T11:22:46.744Z,1015.31
2023-05-19T11:23:46.882Z,1015.30
2023-05-19T11:24:46.745Z,1015.33
2023-05-19T11:25:46.853Z,1015.30
2023-05-19T11:26:46.735Z,1015.33
2023-05-19T11:27:46.745Z,1015.33
2023-05-19T11:28:46.748Z,1015.28
2023-05-19T11:29:46.742Z,1015.27
2023-05-19T11:30:46.740Z,1015.23
2023-05-19T11:31:46.766Z,1015.26
2023-05-19T11:32:46.771Z,1015.27
2023-05-19T11:33:46.744Z,1015.28
2023-05-19T11:34:46.747Z,1015.30
2023-05-19T11:35:46.746Z,1015.35
2023-05-19T11:36:46.745Z,1015.33
2023-05-19T11:37:46.740Z,1015.24
2023-05-19T11:38:46.730Z,1015.17
2023-05-19T11:39:46.729Z,1015.16
2023-05-19T11:40:46.732Z,1015.19
2023-05-19T11:41:46.735Z,1015.15
2023-05-19T11:42:46.726Z,1015.11
2023-05-19T11:43:46.725Z,1015.10
2023-05-19T11:44:46.746Z,1015.07
2023-05-19T11:45:46.890Z,1015.07
2023-05-19T11:46:46.784Z,1015.10
2023-05-19T11:48:01.390Z,1015.04
2023-05-19T11:48:46.833Z,1015.14
2023-05-19T11:49:46.714Z,1015.00
2023-05-19T11:50:46.739Z,1015.01
2023-05-19T11:51:46.715Z,1015.05
2023-05-19T11:52:46.710Z,1015.04
2023-05-19T11:53:46.706Z,1015.03
2023-05-19T11:54:46.710Z,1015.04
2023-05-19T11:55:47.049Z,1015.07
2023-05-19T11:56:46.713Z,1015.07
2023-05-19T11:57:55.991Z,1015.01
2023-05-19T11:58:46.706Z,1014.97
2023-05-19T11:59:46.696Z,1015.01
2023-05-19T12:00:46.732Z,1015.02
2023-05-19T12:01:46.723Z,1014.95
2023-05-19T12:02:46.861Z,1014.99
2023-05-19T12:03:46.794Z,1014.95
2023-05-19T12:04:46.793Z,1015.02
2023-05-19T12:05:47.611Z,1014.95